Time;durP1;ratioP1;P1;durP2;ratioP2;P2;SDS_P1;SDS_P2;PMS_P1;PMS_P2;Temp;Humidity;BMP_temperature;BMP_pressure;BME280_temperature;BME280_humidity;BME280_pressure;Samples;Min_cycle;Max_cycle;Signal;HPM_P1;HPM_P2
2022/05/17 00:00:58;;;;;;;9.65;3.80;;;18.00;84.10;;;;;;4968301;28;20050;-77
2022/05/17 00:03:25;;;;;;;8.05;4.00;;;17.90;84.00;;;;;;4960295;28;20079;-77
2022/05/17 00:05:53;;;;;;;10.27;3.88;;;17.90;84.00;;;;;;4964951;28;20053;-74
2022/05/17 00:08:20;;;;;;;11.40;3.90;;;17.90;84.00;;;;;;4979102;28;20121;-75
2022/05/17 00:10:48;;;;;;;9.55;4.22;;;17.90;83.90;;;;;;4981291;28;20133;-77
2022/05/17 00:13:15;;;;;;;8.85;3.55;;;17.80;83.90;;;;;;4976729;28;20452;-77
2022/05/17 00:15:45;;;;;;;7.32;3.83;;;17.80;83.90;;;;;;4977137;28;20050;-77
2022/05/17 00:18:13;;;;;;;10.00;4.05;;;17.80;83.90;;;;;;4971590;28;20047;-76
2022/05/17 00:20:41;;;;;;;9.32;3.97;;;17.80;83.90;;;;;;4979189;28;20131;-78
2022/05/17 00:23:11;;;;;;;9.27;3.53;;;17.80;84.00;;;;;;4977566;28;20050;-77
2022/05/17 00:25:38;;;;;;;8.68;3.88;;;17.70;84.00;;;;;;4973160;28;20346;-76
2022/05/17 00:28:05;;;;;;;12.18;3.95;;;17.70;84.00;;;;;;4973185;28;20784;-76
2022/05/17 00:30:33;;;;;;;7.80;3.70;;;17.70;84.00;;;;;;4975445;28;20065;-78
2022/05/17 00:33:00;;;;;;;8.55;4.00;;;17.70;84.00;;;;;;4982694;28;20108;-79
2022/05/17 00:35:26;;;;;;;9.63;4.47;;;17.70;84.10;;;;;;4959770;28;20680;-76
2022/05/17 00:37:54;;;;;;;12.20;4.50;;;17.70;84.10;;;;;;4976297;28;20042;-77
2022/05/17 00:40:23;;;;;;;9.02;4.18;;;17.70;84.20;;;;;;4974301;28;20061;-76
2022/05/17 00:42:50;;;;;;;7.93;4.22;;;17.70;84.30;;;;;;4975009;28;20133;-78
2022/05/17 00:45:16;;;;;;;12.40;5.38;;;17.60;84.50;;;;;;4975157;28;20045;-78
2022/05/17 00:51:12;;;;;;;10.82;5.53;;;17.60;84.70;;;;;;4975918;28;20472;-78
2022/05/17 00:53:39;;;;;;;13.80;5.00;;;17.50;84.80;;;;;;4976113;28;20081;-76
2022/05/17 00:56:13;;;;;;;7.65;4.88;;;17.50;84.90;;;;;;4973666;28;20046;-78
2022/05/17 00:58:44;;;;;;;10.00;5.30;;;17.50;84.90;;;;;;4975932;28;20572;-75
2022/05/17 01:01:14;;;;;;;9.85;5.43;;;17.60;84.90;;;;;;4970799;28;20782;-78
2022/05/17 01:03:46;;;;;;;10.60;5.25;;;17.50;84.90;;;;;;4976050;28;20121;-78
2022/05/17 01:06:14;;;;;;;10.52;5.78;;;17.50;84.90;;;;;;4976220;28;20082;-75
2022/05/17 01:08:41;;;;;;;9.10;5.40;;;17.50;84.90;;;;;;4976000;28;20118;-76
2022/05/17 01:11:09;;;;;;;7.53;4.97;;;17.50;84.90;;;;;;4973955;28;20042;-75
2022/05/17 01:16:22;;;;;;;9.35;5.35;;;17.40;85.00;;;;;;4971949;28;20409;-77
2022/05/17 01:18:50;;;;;;;9.48;4.95;;;17.40;85.10;;;;;;4974594;28;20041;-75
2022/05/17 01:21:19;;;;;;;11.18;5.15;;;17.40;85.10;;;;;;4977068;28;20042;-77
2022/05/17 01:23:46;;;;;;;13.18;5.40;;;17.40;85.00;;;;;;4976253;28;20081;-77
2022/05/17 01:26:18;;;;;;;8.98;4.63;;;17.40;85.00;;;;;;4975328;28;20557;-77
2022/05/17 01:28:45;;;;;;;7.22;4.43;;;17.40;85.00;;;;;;4983814;28;20046;-77
2022/05/17 01:31:12;;;;;;;8.10;5.18;;;17.40;85.00;;;;;;4980489;28;20051;-76
2022/05/17 01:33:40;;;;;;;8.77;4.75;;;17.40;85.00;;;;;;4975495;28;20046;-77
2022/05/17 01:36:14;;;;;;;9.15;5.13;;;17.40;85.00;;;;;;4980662;28;20500;-77
2022/05/17 01:38:45;;;;;;;8.73;4.75;;;17.40;84.90;;;;;;4980391;28;20085;-77
2022/05/17 01:41:12;;;;;;;8.40;4.88;;;17.40;84.90;;;;;;4982397;28;20062;-75
2022/05/17 01:43:40;;;;;;;8.65;4.70;;;17.40;85.00;;;;;;4981045;28;20039;-77
2022/05/17 01:46:08;;;;;;;8.52;4.88;;;17.30;84.90;;;;;;4980017;28;20138;-77
2022/05/17 01:48:36;;;;;;;7.68;5.00;;;17.40;84.90;;;;;;4977081;28;20054;-77
2022/05/17 01:51:03;;;;;;;9.32;5.25;;;17.40;84.90;;;;;;4971695;28;20050;-77
2022/05/17 01:53:30;;;;;;;8.57;5.05;;;17.30;84.90;;;;;;4976589;28;20119;-74
2022/05/17 01:55:58;;;;;;;7.50;4.68;;;17.30;84.90;;;;;;4974885;28;20042;-75
2022/05/17 01:58:25;;;;;;;11.07;4.80;;;17.30;84.80;;;;;;4973390;28;20042;-77
2022/05/17 02:00:52;;;;;;;10.20;4.90;;;17.30;84.90;;;;;;4957378;28;20490;-78
2022/05/17 02:03:20;;;;;;;10.65;5.03;;;17.30;84.90;;;;;;4969480;28;20062;-78
2022/05/17 02:05:47;;;;;;;8.57;4.28;;;17.30;84.80;;;;;;4972222;28;20050;-77
2022/05/17 02:08:15;;;;;;;8.68;5.40;;;17.30;84.70;;;;;;4974451;28;20050;-76
2022/05/17 02:10:42;;;;;;;8.13;4.60;;;17.30;84.70;;;;;;4972602;28;20042;-76
2022/05/17 02:13:10;;;;;;;10.23;5.30;;;17.20;84.80;;;;;;4973689;28;20042;-74
2022/05/17 02:15:38;;;;;;;10.85;4.93;;;17.20;84.80;;;;;;4974339;28;20058;-77
2022/05/17 02:18:05;;;;;;;8.75;5.13;;;17.20;84.90;;;;;;4980245;28;20039;-78
2022/05/17 02:20:32;;;;;;;8.77;4.95;;;17.20;84.80;;;;;;4980699;28;20048;-76
2022/05/17 02:23:00;;;;;;;8.38;4.68;;;17.20;84.80;;;;;;4985405;28;20526;-77
2022/05/17 02:25:27;;;;;;;9.02;5.13;;;17.20;84.80;;;;;;4985471;28;20046;-77
2022/05/17 02:27:56;;;;;;;7.90;4.55;;;17.20;84.80;;;;;;4984134;28;20074;-77
2022/05/17 02:30:24;;;;;;;11.05;5.00;;;17.20;84.80;;;;;;4984763;28;20058;-77
2022/05/17 02:32:51;;;;;;;9.02;4.70;;;17.10;84.60;;;;;;4987588;28;20042;-77
2022/05/17 02:35:18;;;;;;;9.13;4.50;;;17.10;84.60;;;;;;4984835;28;20043;-76
2022/05/17 02:37:45;;;;;;;6.03;3.88;;;17.10;84.50;;;;;;4986799;28;20061;-77
2022/05/17 02:40:13;;;;;;;7.50;4.22;;;17.20;84.40;;;;;;4985876;28;20052;-77
2022/05/17 02:42:41;;;;;;;8.60;4.50;;;17.10;84.40;;;;;;4987243;28;20050;-77
2022/05/17 02:45:08;;;;;;;9.70;4.10;;;17.10;84.40;;;;;;4985168;28;20054;-77
2022/05/17 02:47:37;;;;;;;8.80;4.80;;;17.10;84.30;;;;;;4983279;28;20076;-76
2022/05/17 02:50:05;;;;;;;8.55;4.55;;;17.10;84.30;;;;;;4985649;28;20061;-76
2022/05/17 02:52:32;;;;;;;7.40;4.10;;;17.10;84.30;;;;;;4984593;28;20098;-77
2022/05/17 02:54:59;;;;;;;8.40;4.40;;;17.10;84.20;;;;;;4985848;28;20046;-77
2022/05/17 02:57:26;;;;;;;10.15;4.75;;;17.10;84.30;;;;;;4985298;28;20046;-77
2022/05/17 02:59:53;;;;;;;8.77;4.25;;;17.10;84.30;;;;;;4985481;28;20049;-78
2022/05/17 03:02:20;;;;;;;7.60;4.60;;;17.00;84.30;;;;;;4979537;28;20124;-77
2022/05/17 03:04:48;;;;;;;7.90;4.47;;;17.00;84.30;;;;;;4984988;28;20035;-75
2022/05/17 03:07:15;;;;;;;8.95;4.97;;;17.00;84.30;;;;;;4985881;28;20062;-76
2022/05/17 03:09:42;;;;;;;9.45;4.80;;;17.00;84.30;;;;;;4982816;28;20061;-77
2022/05/17 03:12:10;;;;;;;7.40;4.22;;;17.00;84.30;;;;;;4986203;28;20420;-78
2022/05/17 03:14:37;;;;;;;15.88;4.40;;;17.10;84.10;;;;;;4985346;28;20046;-77
2022/05/17 03:17:10;;;;;;;7.65;4.28;;;17.00;84.10;;;;;;4985133;28;20051;-77
2022/05/17 03:19:37;;;;;;;8.35;4.43;;;17.00;84.00;;;;;;4983598;28;20492;-78
2022/05/17 03:22:06;;;;;;;9.40;4.57;;;17.00;84.00;;;;;;4984296;28;20034;-76
2022/05/17 03:24:33;;;;;;;8.82;4.70;;;16.90;84.10;;;;;;4984441;28;20464;-77
2022/05/17 03:27:01;;;;;;;10.63;4.85;;;17.00;84.00;;;;;;4985049;28;20042;-76
2022/05/17 03:29:29;;;;;;;9.55;4.40;;;16.90;84.00;;;;;;4983887;28;20066;-75
2022/05/17 03:31:57;;;;;;;11.43;5.32;;;16.90;84.10;;;;;;4983127;28;20141;-75
2022/05/17 03:34:25;;;;;;;8.60;4.78;;;16.90;84.20;;;;;;4984602;28;20042;-78
2022/05/17 03:36:52;;;;;;;9.68;4.70;;;16.90;84.10;;;;;;4985014;28;20158;-76
2022/05/17 03:39:20;;;;;;;10.27;4.70;;;16.90;84.20;;;;;;4982843;28;20069;-76
2022/05/17 03:41:47;;;;;;;7.40;4.50;;;16.90;84.20;;;;;;4984318;28;20510;-76
2022/05/17 03:44:15;;;;;;;8.32;4.30;;;16.90;84.30;;;;;;4984020;28;20039;-76
2022/05/17 03:46:41;;;;;;;11.50;4.68;;;16.90;84.40;;;;;;4982339;28;20069;-75
2022/05/17 03:49:08;;;;;;;7.85;4.57;;;16.90;84.50;;;;;;4985715;28;20038;-76
2022/05/17 03:51:35;;;;;;;8.68;4.70;;;16.80;84.50;;;;;;4982130;28;20054;-75
2022/05/17 03:54:02;;;;;;;7.90;4.38;;;16.70;84.50;;;;;;4983230;28;20035;-80
2022/05/17 03:56:31;;;;;;;8.02;4.53;;;16.80;84.50;;;;;;4984041;28;20043;-77
2022/05/17 03:58:57;;;;;;;7.28;4.10;;;16.70;84.50;;;;;;4963816;28;20042;-76
2022/05/17 04:01:24;;;;;;;8.20;4.63;;;16.70;84.40;;;;;;4980928;28;20042;-77
2022/05/17 04:03:52;;;;;;;6.90;4.10;;;16.80;84.30;;;;;;4983934;28;20134;-76
2022/05/17 04:06:21;;;;;;;11.82;4.30;;;16.80;84.40;;;;;;4984911;28;20082;-75
2022/05/17 04:08:49;;;;;;;7.22;4.00;;;16.80;84.40;;;;;;4985149;28;20046;-74
2022/05/17 04:11:17;;;;;;;7.68;4.00;;;16.80;84.40;;;;;;4985114;28;20050;-75
2022/05/17 04:13:45;;;;;;;7.43;4.20;;;16.80;84.50;;;;;;4981175;28;20049;-75
2022/05/17 04:16:13;;;;;;;9.07;4.15;;;16.70;84.50;;;;;;4981300;28;20048;-73
2022/05/17 04:18:40;;;;;;;8.65;4.40;;;16.70;84.50;;;;;;4972750;28;20050;-76
2022/05/17 04:21:07;;;;;;;6.90;4.13;;;16.70;84.50;;;;;;4984511;28;20125;-76
2022/05/17 04:23:34;;;;;;;8.98;4.28;;;16.70;84.50;;;;;;4984901;28;20523;-75
2022/05/17 04:26:03;;;;;;;7.15;4.03;;;16.80;84.40;;;;;;4984576;28;20038;-78
2022/05/17 04:28:31;;;;;;;7.78;4.05;;;16.80;84.30;;;;;;4981664;28;20054;-78
2022/05/17 04:30:59;;;;;;;6.38;3.88;;;16.80;84.40;;;;;;4980038;28;20137;-76
2022/05/17 04:33:26;;;;;;;7.30;3.95;;;16.70;84.40;;;;;;4976705;28;20049;-78
2022/05/17 04:35:53;;;;;;;7.28;4.15;;;16.70;84.50;;;;;;4981692;28;20042;-77
2022/05/17 04:38:20;;;;;;;9.85;4.13;;;16.70;84.50;;;;;;4978846;28;20082;-78
2022/05/17 04:40:48;;;;;;;7.10;4.10;;;16.70;84.60;;;;;;4976414;28;20068;-77
2022/05/17 04:43:15;;;;;;;8.57;4.05;;;16.70;84.60;;;;;;4975452;28;20047;-77
2022/05/17 04:45:44;;;;;;;8.82;4.78;;;16.70;84.50;;;;;;4973598;28;20042;-77
2022/05/17 04:48:13;;;;;;;8.05;4.50;;;16.70;84.70;;;;;;4976413;28;20038;-76
2022/05/17 04:50:40;;;;;;;9.35;4.50;;;16.70;84.70;;;;;;4977288;28;20061;-76
2022/05/17 04:53:07;;;;;;;10.40;4.97;;;16.70;84.70;;;;;;4976633;28;20538;-75
2022/05/17 04:55:34;;;;;;;9.43;5.05;;;16.70;84.70;;;;;;4976961;28;20121;-77
2022/05/17 04:58:01;;;;;;;8.32;4.60;;;16.70;84.70;;;;;;4953566;28;20038;-76
2022/05/17 05:00:28;;;;;;;8.23;4.43;;;16.70;84.70;;;;;;4971096;28;20135;-76
2022/05/17 05:02:56;;;;;;;8.57;4.45;;;16.80;84.70;;;;;;4973714;28;20137;-75
2022/05/17 05:05:25;;;;;;;7.97;4.50;;;16.70;84.60;;;;;;4974529;28;20043;-76
2022/05/17 05:07:53;;;;;;;8.13;4.57;;;16.70;84.60;;;;;;4974792;28;20053;-77
2022/05/17 05:10:20;;;;;;;9.25;5.15;;;16.70;84.70;;;;;;4973647;28;20043;-76
2022/05/17 05:12:47;;;;;;;7.57;4.38;;;16.70;84.80;;;;;;4976790;28;20073;-76
2022/05/17 05:15:15;;;;;;;9.07;5.13;;;16.70;84.80;;;;;;4975420;28;20125;-75
2022/05/17 05:17:42;;;;;;;8.25;4.80;;;16.70;84.80;;;;;;4974353;28;20046;-76
2022/05/17 05:20:11;;;;;;;8.23;4.43;;;16.70;84.80;;;;;;4974549;28;20542;-77
2022/05/17 05:22:40;;;;;;;9.13;4.88;;;16.80;84.80;;;;;;4976536;28;20069;-77
2022/05/17 05:25:07;;;;;;;10.63;4.43;;;16.80;84.70;;;;;;4974056;28;20042;-75
2022/05/17 05:27:36;;;;;;;9.25;4.32;;;16.80;84.70;;;;;;4976125;28;20053;-75
2022/05/17 05:30:07;;;;;;;12.35;4.85;;;16.90;84.60;;;;;;4974378;28;20077;-77
2022/05/17 05:32:34;;;;;;;9.40;5.53;;;16.90;84.60;;;;;;4974121;28;20034;-77
2022/05/17 05:35:01;;;;;;;6.82;4.18;;;16.90;84.60;;;;;;4973663;28;20041;-76
2022/05/17 05:37:28;;;;;;;9.98;5.15;;;16.90;84.70;;;;;;4972921;28;20042;-75
2022/05/17 05:39:56;;;;;;;12.10;5.78;;;16.90;84.80;;;;;;4975852;28;20066;-76
2022/05/17 05:42:24;;;;;;;10.30;4.88;;;16.90;84.80;;;;;;4959549;28;20514;-75
2022/05/17 05:44:52;;;;;;;8.75;5.63;;;16.90;84.80;;;;;;4973789;28;20054;-76
2022/05/17 05:47:19;;;;;;;9.32;5.55;;;16.90;84.90;;;;;;4973461;28;20500;-76
2022/05/17 05:49:47;;;;;;;14.13;6.35;;;16.90;84.90;;;;;;4975006;28;20109;-76
2022/05/17 05:52:14;;;;;;;11.88;5.13;;;16.90;84.80;;;;;;4979412;28;20051;-79
2022/05/17 05:54:41;;;;;;;11.30;5.38;;;16.90;84.90;;;;;;4978776;28;20050;-76
2022/05/17 05:57:10;;;;;;;10.95;5.88;;;17.00;84.80;;;;;;4979151;28;20512;-76
2022/05/17 05:59:37;;;;;;;10.52;5.60;;;17.00;84.80;;;;;;4979194;28;20090;-76
2022/05/17 06:02:05;;;;;;;8.68;5.63;;;17.00;84.70;;;;;;4975943;28;20473;-76
2022/05/17 06:04:32;;;;;;;11.73;5.78;;;17.00;84.70;;;;;;4978676;28;20046;-76
2022/05/17 06:07:01;;;;;;;8.90;4.88;;;17.00;84.60;;;;;;4980384;28;20043;-74
2022/05/17 06:09:29;;;;;;;8.18;5.05;;;16.90;84.70;;;;;;4980124;28;20473;-76
2022/05/17 06:11:57;;;;;;;10.30;5.57;;;17.00;84.70;;;;;;4976224;28;20432;-78
2022/05/17 06:14:27;;;;;;;11.40;5.75;;;16.90;84.60;;;;;;4979628;28;20121;-77
2022/05/17 06:16:53;;;;;;;7.93;5.30;;;16.90;84.60;;;;;;4978089;28;20122;-77
2022/05/17 06:19:22;;;;;;;11.25;5.68;;;17.00;84.60;;;;;;4978381;28;20050;-77
2022/05/17 06:21:49;;;;;;;15.20;5.32;;;17.00;84.60;;;;;;4965201;28;20484;-75
2022/05/17 06:24:17;;;;;;;8.80;5.20;;;16.90;84.70;;;;;;4986214;28;20038;-75
2022/05/17 06:26:44;;;;;;;11.95;5.57;;;17.00;84.70;;;;;;4981629;28;20541;-75
2022/05/17 06:29:11;;;;;;;9.70;5.28;;;17.10;84.70;;;;;;4981512;28;20646;-74
2022/05/17 06:31:40;;;;;;;9.20;5.22;;;17.10;84.60;;;;;;4977731;28;20042;-77
2022/05/17 06:34:07;;;;;;;10.70;5.97;;;17.10;84.50;;;;;;4979286;28;20480;-77
2022/05/17 06:36:34;;;;;;;9.57;5.80;;;17.10;84.60;;;;;;4984849;28;20073;-76
2022/05/17 06:39:01;;;;;;;11.95;5.97;;;17.10;84.50;;;;;;4982491;28;20058;-78
2022/05/17 06:41:28;;;;;;;9.90;6.05;;;17.10;84.40;;;;;;4983886;28;20149;-76
2022/05/17 06:43:55;;;;;;;9.35;5.82;;;17.20;84.40;;;;;;4981945;28;20047;-76
2022/05/17 06:46:22;;;;;;;12.05;6.40;;;17.20;84.30;;;;;;4982138;28;20046;-76
2022/05/17 06:48:50;;;;;;;12.00;5.97;;;17.20;84.30;;;;;;4982905;28;20043;-75
2022/05/17 06:51:17;;;;;;;11.05;6.45;;;17.20;84.20;;;;;;4984972;28;20042;-77
2022/05/17 06:53:45;;;;;;;11.70;6.28;;;17.30;84.20;;;;;;4976488;28;20031;-76
2022/05/17 06:56:12;;;;;;;11.70;6.05;;;17.30;84.20;;;;;;4977374;28;21970;-78
2022/05/17 06:58:39;;;;;;;11.40;6.00;;;17.30;84.30;;;;;;4974667;28;20869;-76
2022/05/17 07:01:06;;;;;;;10.20;6.25;;;17.30;84.40;;;;;;4972845;28;20051;-74
2022/05/17 07:03:33;;;;;;;10.05;6.50;;;17.30;84.40;;;;;;4977280;28;20061;-75
2022/05/17 07:06:02;;;;;;;11.93;6.53;;;17.40;84.30;;;;;;4977667;28;20124;-76
2022/05/17 07:08:29;;;;;;;12.50;6.70;;;17.30;84.30;;;;;;4975241;28;20042;-78
2022/05/17 07:13:41;;;;;;;9.95;5.95;;;17.40;84.10;;;;;;4976024;28;20117;-76
2022/05/17 07:16:09;;;;;;;12.20;6.45;;;17.40;84.20;;;;;;4974803;28;20057;-77
2022/05/17 07:18:36;;;;;;;10.20;6.47;;;17.50;84.20;;;;;;4976240;28;20765;-78
2022/05/17 07:21:05;;;;;;;11.45;6.82;;;17.50;84.00;;;;;;4976452;28;20046;-78
2022/05/17 07:23:32;;;;;;;12.77;7.15;;;17.50;84.10;;;;;;4975737;28;20118;-78
2022/05/17 07:25:59;;;;;;;12.73;7.70;;;17.60;84.00;;;;;;4976843;28;20043;-75
2022/05/17 07:28:27;;;;;;;12.88;7.45;;;17.60;84.00;;;;;;4974968;28;20039;-75
2022/05/17 07:30:53;;;;;;;12.40;7.65;;;17.60;84.00;;;;;;4979728;28;22691;-75
2022/05/17 07:33:21;;;;;;;11.70;7.50;;;17.70;84.00;;;;;;4979428;28;20075;-76
2022/05/17 07:35:48;;;;;;;12.05;7.78;;;17.70;84.00;;;;;;4977919;28;20125;-78
2022/05/17 07:38:18;;;;;;;14.30;8.55;;;17.90;83.80;;;;;;4976134;28;20169;-76
2022/05/17 07:40:45;;;;;;;10.95;7.07;;;18.00;83.90;;;;;;4977107;28;21037;-76
2022/05/17 07:43:12;;;;;;;14.85;7.20;;;18.10;83.90;;;;;;4980518;28;20120;-74
2022/05/17 07:45:39;;;;;;;14.05;8.25;;;18.20;83.70;;;;;;4977706;28;20046;-74
2022/05/17 07:48:07;;;;;;;15.40;8.32;;;18.20;83.40;;;;;;4976246;28;20189;-74
2022/05/17 07:50:34;;;;;;;13.48;7.57;;;18.30;83.40;;;;;;4978264;28;20182;-75
2022/05/17 07:53:08;;;;;;;13.33;7.03;;;18.50;83.40;;;;;;4976734;28;20054;-78
2022/05/17 07:55:38;;;;;;;11.43;7.22;;;18.60;83.50;;;;;;4977495;28;20496;-76
2022/05/17 07:58:05;;;;;;;;;;;18.80;83.00;;;;;;4976468;28;20064;-76
2022/05/17 08:00:32;;;;;;;11.32;7.07;;;18.90;82.30;;;;;;4975304;28;19925;-76
2022/05/17 08:02:59;;;;;;;14.38;7.18;;;19.00;82.30;;;;;;4965471;28;20404;-77
2022/05/17 08:05:27;;;;;;;11.90;7.63;;;19.10;82.40;;;;;;4977772;28;20108;-77
2022/05/17 08:07:55;;;;;;;12.68;7.60;;;19.20;81.90;;;;;;4976948;28;20042;-77
2022/05/17 08:10:23;;;;;;;12.63;7.40;;;19.30;81.60;;;;;;4977781;28;20047;-77
2022/05/17 08:12:52;;;;;;;13.50;7.05;;;19.30;81.70;;;;;;4971913;28;20066;-77
2022/05/17 08:15:20;;;;;;;12.03;7.00;;;19.40;81.30;;;;;;4976717;28;20101;-77
2022/05/17 08:17:47;;;;;;;10.57;5.93;;;19.30;80.80;;;;;;4977029;28;20474;-77
2022/05/17 08:20:14;;;;;;;10.38;6.60;;;19.40;81.20;;;;;;4975968;28;20057;-79
2022/05/17 08:22:43;;;;;;;12.85;6.20;;;19.50;81.30;;;;;;4977750;28;20034;-76
2022/05/17 08:27:58;;;;;;;11.40;6.50;;;19.70;81.20;;;;;;4975441;28;20053;-78
2022/05/17 08:30:27;;;;;;;12.18;6.90;;;19.80;80.50;;;;;;4973078;28;20058;-77
2022/05/17 08:35:46;;;;;;;10.93;5.93;;;20.10;80.30;;;;;;4974081;28;20046;-77
2022/05/17 08:38:16;;;;;;;10.00;6.68;;;20.20;80.50;;;;;;4975532;28;20044;-79
2022/05/17 08:41:05;;;;;;;10.32;6.00;;;20.40;79.90;;;;;;4976215;28;20059;-78
2022/05/17 08:43:43;;;;;;;9.02;5.57;;;20.50;79.70;;;;;;4974500;28;20049;-76
2022/05/17 08:46:26;;;;;;;9.07;5.25;;;20.60;79.40;;;;;;4973962;28;20043;-77
2022/05/17 08:48:56;;;;;;;10.80;4.90;;;20.80;78.80;;;;;;4974619;28;20035;-75
2022/05/17 08:51:31;;;;;;;8.98;4.78;;;20.90;78.30;;;;;;4973597;28;20043;-78
2022/05/17 08:53:58;;;;;;;8.25;4.60;;;21.10;79.40;;;;;;4975837;28;20065;-76
2022/05/17 08:56:38;;;;;;;9.10;5.22;;;21.10;78.10;;;;;;4971579;28;20142;-76
2022/05/17 08:59:11;;;;;;;9.38;4.75;;;21.20;76.90;;;;;;4977851;28;20508;-75
2022/05/17 09:01:44;;;;;;;8.13;4.50;;;21.30;76.70;;;;;;4973958;28;20576;-77
2022/05/17 09:04:25;;;;;;;9.60;4.40;;;21.40;77.40;;;;;;4975867;28;20502;-76
2022/05/17 09:07:02;;;;;;;10.10;4.85;;;21.60;76.20;;;;;;4979659;28;20039;-76
2022/05/17 09:09:37;;;;;;;8.45;4.47;;;21.70;74.20;;;;;;4972482;28;20392;-76
2022/05/17 09:12:11;;;;;;;10.38;5.30;;;21.80;74.80;;;;;;4976017;28;20069;-77
2022/05/17 09:14:45;;;;;;;9.13;5.43;;;21.90;73.10;;;;;;4974366;28;20046;-76
2022/05/17 09:17:15;;;;;;;9.93;4.88;;;22.00;73.50;;;;;;4974521;28;20042;-78
2022/05/17 09:19:43;;;;;;;9.60;4.78;;;22.10;73.30;;;;;;4976417;28;20034;-78
2022/05/17 09:22:10;;;;;;;9.38;4.90;;;22.10;72.30;;;;;;4974600;28;20043;-78
2022/05/17 09:24:40;;;;;;;7.97;4.15;;;22.20;71.60;;;;;;4972742;28;20583;-76
2022/05/17 09:27:10;;;;;;;7.63;3.55;;;22.20;71.80;;;;;;4975073;28;20058;-77
2022/05/17 09:29:43;;;;;;;6.43;3.80;;;22.30;72.70;;;;;;4975551;28;20046;-77
2022/05/17 09:32:12;;;;;;;8.00;3.78;;;22.50;72.10;;;;;;4976622;28;20047;-77
2022/05/17 09:34:41;;;;;;;7.57;4.47;;;22.60;71.30;;;;;;4975458;28;20066;-78
2022/05/17 09:37:13;;;;;;;7.97;4.35;;;22.60;71.60;;;;;;4977473;28;20046;-77
2022/05/17 09:39:45;;;;;;;7.57;4.07;;;22.70;71.60;;;;;;4973697;28;20085;-77
2022/05/17 09:42:26;;;;;;;6.70;3.95;;;22.80;70.50;;;;;;4974958;28;20066;-78
2022/05/17 09:44:56;;;;;;;7.45;3.50;;;22.90;70.40;;;;;;4972593;28;20070;-78
2022/05/17 09:47:30;;;;;;;7.60;4.45;;;22.90;69.20;;;;;;4957881;28;20157;-76
2022/05/17 09:53:00;;;;;;;10.63;4.70;;;22.90;67.80;;;;;;4972166;28;20077;-75
2022/05/17 09:55:30;;;;;;;7.80;3.97;;;22.90;68.20;;;;;;4970857;28;20061;-77
2022/05/17 09:58:01;;;;;;;6.80;3.47;;;23.00;68.70;;;;;;4975423;28;20097;-78
2022/05/17 10:00:33;;;;;;;9.57;4.00;;;23.00;68.60;;;;;;4971077;28;20034;-76
2022/05/17 10:03:03;;;;;;;8.98;4.38;;;23.10;67.90;;;;;;4972647;28;20166;-77
2022/05/17 10:05:43;;;;;;;;;;;23.10;68.50;;;;;;4974766;28;20046;-76
2022/05/17 10:08:34;;;;;;;9.65;4.93;;;23.10;68.10;;;;;;4974187;28;20823;-76
2022/05/17 10:11:13;;;;;;;10.43;4.38;;;23.10;67.90;;;;;;4978239;28;20648;-77
2022/05/17 10:13:55;;;;;;;12.77;6.50;;;23.10;67.20;;;;;;4975925;28;20053;-76
2022/05/17 10:16:30;;;;;;;9.05;5.50;;;23.10;67.10;;;;;;4975908;28;20074;-78
2022/05/17 10:19:00;;;;;;;9.73;5.38;;;23.10;66.70;;;;;;4975178;28;20041;-77
2022/05/17 10:21:32;;;;;;;8.05;4.85;;;23.30;67.50;;;;;;4972461;28;20152;-76
2022/05/17 10:24:05;;;;;;;9.48;4.50;;;23.30;66.90;;;;;;4974051;28;20050;-76
2022/05/17 10:26:39;;;;;;;7.05;3.78;;;23.40;66.40;;;;;;4973081;28;20038;-77
2022/05/17 10:29:10;;;;;;;9.40;4.10;;;23.50;65.10;;;;;;4972726;28;20124;-77
2022/05/17 10:31:43;;;;;;;7.95;4.30;;;23.60;65.60;;;;;;4973954;28;20035;-75
2022/05/17 10:34:30;;;;;;;7.13;3.25;;;23.60;66.00;;;;;;4972631;28;20097;-79
2022/05/17 10:37:00;;;;;;;6.65;2.90;;;23.70;65.70;;;;;;4975839;28;20688;-77
2022/05/17 10:39:35;;;;;;;6.10;3.05;;;23.70;63.80;;;;;;4978838;28;20524;-77
2022/05/17 10:42:04;;;;;;;7.60;3.50;;;23.80;63.40;;;;;;4977470;28;20054;-76
2022/05/17 10:44:40;;;;;;;8.23;3.67;;;23.80;63.50;;;;;;4978575;28;20052;-77
2022/05/17 10:47:15;;;;;;;6.55;3.25;;;23.90;63.60;;;;;;4980747;28;20055;-75
2022/05/17 10:49:54;;;;;;;6.90;2.97;;;23.90;64.50;;;;;;4978508;28;20050;-76
2022/05/17 10:52:32;;;;;;;9.52;3.40;;;24.00;63.10;;;;;;4977780;28;20122;-76
2022/05/17 10:55:07;;;;;;;5.45;2.70;;;24.00;62.30;;;;;;4979607;28;20122;-76
2022/05/17 10:57:44;;;;;;;9.73;3.20;;;24.00;61.70;;;;;;4977950;28;20117;-78
2022/05/17 11:00:18;;;;;;;6.80;2.85;;;24.00;63.10;;;;;;4973535;28;20031;-78
2022/05/17 11:03:26;;;;;;;5.82;2.60;;;24.00;62.20;;;;;;4979591;28;20129;-76
2022/05/17 11:06:07;;;;;;;4.55;2.40;;;24.00;61.90;;;;;;4977626;28;20042;-77
2022/05/17 11:08:43;;;;;;;7.20;4.18;;;24.00;61.70;;;;;;4975840;28;22472;-75
2022/05/17 11:11:26;;;;;;;6.55;3.35;;;24.10;62.40;;;;;;4979447;28;20136;-76
2022/05/17 11:13:57;;;;;;;9.68;2.90;;;24.10;61.70;;;;;;4975928;28;20047;-76
2022/05/17 11:16:30;;;;;;;6.43;3.03;;;24.10;62.00;;;;;;4978231;28;20061;-78
2022/05/17 11:19:04;;;;;;;4.82;2.35;;;24.10;60.90;;;;;;4985540;28;20053;-77
2022/05/17 11:21:36;;;;;;;4.75;2.65;;;24.10;61.10;;;;;;4984965;28;20503;-75
2022/05/17 11:24:15;;;;;;;5.75;2.42;;;24.10;61.30;;;;;;4977728;28;20042;-77
2022/05/17 11:26:55;;;;;;;;;;;24.10;60.70;;;;;;4975543;28;20555;-77
2022/05/17 11:29:52;;;;;;;6.40;3.38;;;24.10;60.60;;;;;;4978459;28;20426;-75
2022/05/17 11:32:25;;;;;;;6.10;3.10;;;24.20;59.90;;;;;;4975604;28;20595;-77
2022/05/17 11:34:54;;;;;;;6.28;2.55;;;24.30;59.30;;;;;;4977708;28;20043;-76
2022/05/17 11:37:42;;;;;;;;;;;24.30;59.50;;;;;;4978425;28;20042;-75
2022/05/17 11:40:11;;;;;;;6.22;2.47;;;24.30;59.50;;;;;;4972841;28;20041;-76
2022/05/17 11:43:40;;;;;;;4.45;2.20;;;24.40;59.00;;;;;;4978802;28;20042;-73
2022/05/17 11:45:44;;;;;;;4.57;2.42;;;24.40;59.20;;;;;;4983303;28;20034;-76
2022/05/17 11:48:17;;;;;;;4.45;2.13;;;24.40;58.90;;;;;;4981783;28;20037;-76
2022/05/17 11:50:56;;;;;;;4.70;1.90;;;24.40;58.90;;;;;;4981108;28;20046;-73
2022/05/17 11:53:42;;;;;;;4.07;1.90;;;24.40;58.60;;;;;;4984032;28;20042;-75
2022/05/17 11:56:33;;;;;;;3.60;1.80;;;24.40;58.90;;;;;;4983888;28;20038;-75
2022/05/17 11:59:23;;;;;;;4.85;2.22;;;24.50;57.60;;;;;;4983395;28;20108;-75
2022/05/17 12:02:06;;;;;;;4.03;2.10;;;24.50;57.60;;;;;;4977916;28;20046;-76
2022/05/17 12:04:43;;;;;;;6.20;2.25;;;24.50;57.80;;;;;;4982132;28;20566;-75
2022/05/17 12:07:22;;;;;;;4.32;1.95;;;24.60;57.30;;;;;;4983121;28;20046;-73
2022/05/17 12:09:51;;;;;;;3.20;1.83;;;24.60;57.60;;;;;;4979933;28;20042;-75
2022/05/17 12:12:48;;;;;;;4.82;2.28;;;24.60;57.50;;;;;;4983661;28;20058;-75
2022/05/17 12:15:31;;;;;;;7.90;2.35;;;24.70;57.50;;;;;;4981765;28;20057;-77
2022/05/17 12:18:09;;;;;;;6.15;2.30;;;24.70;56.80;;;;;;4984571;28;20046;-76
2022/05/17 12:20:49;;;;;;;5.93;2.60;;;24.70;56.70;;;;;;4983470;28;20050;-74
2022/05/17 12:23:22;;;;;;;3.50;1.90;;;24.60;56.50;;;;;;4983007;28;20034;-76
2022/05/17 12:26:09;;;;;;;4.15;1.98;;;24.70;56.90;;;;;;4983945;28;20039;-77
2022/05/17 12:28:40;;;;;;;4.65;2.00;;;24.70;57.10;;;;;;4984102;28;20049;-75
2022/05/17 12:31:09;;;;;;;5.75;2.03;;;24.70;56.90;;;;;;4984633;28;20050;-74
2022/05/17 12:33:42;;;;;;;5.80;1.83;;;24.70;56.80;;;;;;4984149;28;20078;-77
2022/05/17 12:36:15;;;;;;;5.93;2.92;;;24.70;56.80;;;;;;4983663;28;20396;-75
2022/05/17 12:44:21;;;;;;;5.90;2.80;;;24.80;56.80;;;;;;4982707;28;20431;-76
2022/05/17 12:46:52;;;;;;;5.65;2.85;;;24.70;56.40;;;;;;4982927;28;20039;-76
2022/05/17 12:49:25;;;;;;;5.70;3.20;;;24.70;56.40;;;;;;4981147;28;20058;-76
2022/05/17 12:51:59;;;;;;;6.38;3.13;;;24.70;56.60;;;;;;4984194;28;20054;-77
2022/05/17 12:54:29;;;;;;;8.65;4.35;;;24.60;56.60;;;;;;4982087;28;20419;-76
2022/05/17 12:56:58;;;;;;;7.47;4.18;;;24.60;56.10;;;;;;4982863;28;20062;-78
2022/05/17 12:59:28;;;;;;;7.13;2.83;;;24.60;56.40;;;;;;4981724;28;20046;-78
2022/05/17 13:01:57;;;;;;;6.50;2.60;;;24.60;56.30;;;;;;4980109;28;20038;-75
2022/05/17 13:04:32;;;;;;;5.57;2.75;;;24.60;56.00;;;;;;4983897;28;20049;-73
2022/05/17 13:07:13;;;;;;;6.43;3.22;;;24.70;55.90;;;;;;4984076;28;20491;-75
2022/05/17 13:09:54;;;;;;;6.47;2.83;;;24.70;55.50;;;;;;4976650;28;20476;-74
2022/05/17 13:12:21;;;;;;;3.65;1.75;;;24.80;55.30;;;;;;4980374;28;20038;-75
2022/05/17 13:14:50;;;;;;;5.28;2.10;;;24.90;56.00;;;;;;4982063;28;20053;-73
2022/05/17 13:17:22;;;;;;;4.25;2.10;;;24.80;56.20;;;;;;4981619;28;20093;-75
2022/05/17 13:19:53;;;;;;;3.42;1.65;;;24.90;55.90;;;;;;4980677;28;20054;-76
2022/05/17 13:22:24;;;;;;;4.93;2.03;;;24.90;56.00;;;;;;4981456;28;20073;-74
2022/05/17 13:25:00;;;;;;;5.13;1.77;;;24.80;56.00;;;;;;4981870;28;20476;-73